Boulder City, Nevada Weather observations

Data are for observation ending at time listed.
 Day   Time    Ave.   Ave.  Ave.  Vector   Max.   Stn.    Total    Solar   Ave.  
  of    of     Air    Rel.  Wind   Wind    Wind   Baro.  Precip.   Rad.    Soil  
Year   Day     Temp.  Hum.  Speed  Dir.    Gust   Pres.                    Temp. 
2017   (PST)    F      %     mph   deg.    mph     mb.     in.     W/m2     F   
------------------------------------------------------------------------------
  35   21:00   54.7    54    3.1   202      4.8   932.2    0.00       0    58.2
  35   21:10   54.7    54    3.2   208      4.5   932.2    0.00       0    58.1
  35   21:20   55.5    52    4.3   240      6.4   932.3    0.00       0    58.0
  35   21:30   56.2    51    4.7   243      6.8   932.3    0.00       0    57.9
  35   21:40   56.4    51    4.6   244      6.3   932.3    0.00       0    57.8
  35   21:50   56.6    50    4.4   245      6.8   932.3    0.00       0    57.7
  35   22:00   56.3    51    4.3   249      6.6   932.4    0.00       0    57.6
  35   22:10   55.6    52    3.5   248      5.4   932.6    0.00       0    57.5
  35   22:20   55.3    53    3.8   242      5.3   932.7    0.00       0    57.4
  35   22:30   55.7    52    4.5   241      6.5   932.8    0.00       0    57.3
  35   22:40   55.3    53    3.2   214      4.8   932.9    0.00       0    57.2
  35   22:50   55.0    53    3.3   238      6.0   932.9    0.00       0    57.1
  35   23:00   55.2    53    3.2   230      5.6   932.8    0.00       0    57.0
  35   23:10   54.6    54    3.1   209      4.9   932.8    0.00       0    56.9
  35   23:20   54.0    54    2.9   217      4.8   932.8    0.00       0    56.8
  35   23:30   54.0    54    5.7   226      7.7   932.8    0.00       0    56.7
  35   23:40   53.4    54    4.7   234      7.3   932.8    0.00       0    56.6
  35   23:50   54.0    50    3.7   240      5.5   932.7    0.00       0    56.6
  36    0:00   52.7    53    2.5   217      4.1   932.6    0.00       0    56.5
  36    0:10   52.3    53    3.2   180      5.4   932.6    0.00       0    56.4
  36    0:20   51.8    54    2.8   189      4.9   932.5    0.00       0    56.3
  36    0:30   51.7    54    3.7   211      5.3   932.4    0.00       0    56.2
  36    0:40   51.2    54    3.6   219      4.9   932.3    0.00       0    56.1
  36    0:50   49.7    56    3.5   213      4.7   932.3    0.00       0    56.0
  36    1:00   50.6    53    3.0   221      4.6   932.3    0.00       0    55.9
  36    1:10   51.1    52    2.7   212      4.3   932.4    0.00       0    55.8
  36    1:20   51.5    51    3.8   227      4.5   932.4    0.00       0    55.7
  36    1:30   49.9    54    2.9   235      4.3   932.4    0.00       0    55.7
  36    1:40   49.2    55    1.7   253      3.9   932.3    0.00       0    55.6
  36    1:50   48.3    58    2.9   211      4.2   932.3    0.00       0    55.4
  36    2:00   48.2    57    1.0   265      2.2   932.2    0.00       0    55.3
  36    2:10   47.9    58    1.8   208      2.6   932.2    0.00       0    55.3
  36    2:20   47.6    59    2.2   208      3.2   932.1    0.00       0    55.2
  36    2:30   47.3    60    2.0   214      2.7   932.1    0.00       0    55.1
  36    2:40   47.3    60    1.5   205      2.4   932.1    0.00       0    55.0
  36    2:50   47.5    60    1.4   224      2.2   932.2    0.00       0    54.9
  36    3:00   47.1    62    0.9   238      1.5   932.0    0.00       0    54.8
  36    3:10   46.5    65    0.7   236      1.5   931.7    0.00       0    54.7
  36    3:20   46.7    65    0.7   275      1.8   931.5    0.00       0    54.6
  36    3:30   47.1    64    1.2   252      2.0   931.5    0.00       0    54.5
  36    3:40   46.7    65    1.5   225      2.1   931.5    0.00       0    54.4
  36    3:50   46.7    66    1.4   242      2.5   931.5    0.00       0    54.3
  36    4:00   46.8    65    1.7   215      2.3   931.5    0.00       0    54.2
  36    4:10   47.1    65    0.5   264      1.5   931.4    0.00       0    54.1
  36    4:20   46.5    67    1.1   274      2.0   931.4    0.00       0    54.0
  36    4:30   46.7    67    1.6   211      2.6   931.4    0.00       0    53.9
  36    4:40   47.4    66    1.6   212      3.2   931.4    0.00       0    53.8
  36    4:50   48.1    63    0.7   287      1.4   931.3    0.00       0    53.7
  36    5:00   47.4    65    2.0   219      2.9   931.3    0.00       0    53.7
  36    5:10   46.5    67    2.3   215      3.0   931.4    0.00       0    53.5
  36    5:20   46.1    68    2.0   223      3.2   931.4    0.00       0    53.5
  36    5:30   46.0    69    3.6   222      4.7   931.5    0.00       0    53.4
  36    5:40   45.9    69    3.4   219      4.7   931.6    0.00       0    53.3
  36    5:50   44.8    72    3.3   218      4.4   931.7    0.00       0    53.2
  36    6:00   45.1    71    1.4   224      3.2   931.7    0.00       0    53.1
  36    6:10   46.4    68    1.3   217      2.6   931.8    0.00       0    53.0
  36    6:20   47.1    66    1.6   238      2.8   932.0    0.00       0    53.0
  36    6:30   46.8    67    0.4   183      1.8   932.1    0.00       0    52.9
  36    6:40   46.8    67    2.4   194      4.3   932.1    0.00       3    52.8
  36    6:50   46.5    68    3.2   234      4.5   932.0    0.00       8    52.7
  36    7:00   46.7    66    4.1   226      5.5   932.1    0.00      18    52.6
  36    7:10   46.5    68    3.6   216      5.0   932.1    0.00      56    52.6
  36    7:20   46.5    68    3.2   217      4.6   932.1    0.00      91    52.5
  36    7:30   48.0    66    2.9   214      4.1   932.4    0.00     124    52.4
  36    7:40   49.7    64    2.2   196      3.5   932.6    0.00     156    52.3
  36    7:50   51.6    59    1.0   198      2.0   932.7    0.00     183    52.3
  36    8:00   52.4    57    2.4   224      4.5   932.9    0.00     212    52.2
  36    8:10   52.7    56    2.5   182      5.1   933.1    0.00     243    52.2
  36    8:20   54.4    54    1.6   159      2.9   933.2    0.00     101    52.2
  36    8:30   55.8    51    1.2    53      2.9   933.4    0.00      51    52.2
  36    8:40   55.4    52    1.2    38      3.0   933.5    0.00     166    52.2
  36    8:50   56.3    51    1.5    83      3.2   933.7    0.00      68    52.2
  36    9:00   58.0    47    0.5    79      2.4   933.8    0.00      71    52.2
  36    9:10   58.9    46    1.1    48      2.4   933.9    0.00     286    52.2
  36    9:20   59.5    44    1.3    49      2.9   933.9    0.00     132    52.2
  36    9:30   59.4    44    1.2    45      3.7   934.0    0.00     405    52.2
  36    9:40   59.6    44    1.5    91      3.7   934.1    0.00     487    52.3
  36    9:50   60.1    44    1.4    57      3.4   934.2    0.00     466    52.4
  36   10:00   60.1    44    1.6    60      3.7   934.2    0.00     495    52.4
  36   10:10   60.0    44    1.9    27      4.2   934.0    0.00     501    52.5
  36   10:20   59.9    46    2.6    19      5.4   934.1    0.00     469    52.5
  36   10:30   59.2    48    2.5    32      5.2   933.9    0.00     490    52.7
  36   10:40   59.3    48    2.6    32      6.6   933.9    0.00     573    52.8
  36   10:50   59.5    47    2.6    37      5.3   933.9    0.00     588    52.9
  36   11:00   59.7    47    2.8    35      5.5   933.8    0.00     579    53.1
  36   11:10   59.9    47    2.8    26      5.3   933.6    0.00     568    53.3
  36   11:20   60.6    46    2.6    28      5.7   933.5    0.00     622    53.5
  36   11:30   60.9    45    2.2    42      4.6   933.3    0.00     612    53.8
  36   11:40   61.4    44    2.5    35      4.5   933.0    0.00     564    54.1
  36   11:50   61.1    44    2.6    32      5.4   932.8    0.00     461    54.5
  36   12:00   60.5    45    2.3    23      5.8   932.4    0.00     514    54.9
  36   12:10   61.5    44    2.6    20      5.6   932.1    0.00     478    55.2
  36   12:20   61.7    43    2.7    22      5.3   931.9    0.00     484    55.6
  36   12:30   61.0    44    2.8    29      6.8   931.7    0.00     441    56.0
  36   12:40   61.0    45    3.1    18      6.3   931.5    0.00     474    56.3
  36   12:50   61.5    44    2.4    30      6.7   931.2    0.00     469    56.6
  36   13:00   62.0    42    2.8    26      6.0   930.9    0.00     513    57.0
  36   13:10   62.1    42    3.4     8      8.7   930.6    0.00     541    57.3
  36   13:20   62.5    41    3.3    22      6.1   930.3    0.00     457    57.6
  36   13:30   62.1    41    2.8    35      7.2   930.1    0.00     428    57.8
  36   13:40   62.2    40    2.8    21      5.2   930.0    0.00     394    58.1
  36   13:50   62.3    40    3.0    11      6.6   929.9    0.00     392    58.4
  36   14:00   63.0    38    1.7    83      5.3   929.8    0.00     408    58.6
  36   14:10   64.5    33    4.8   136     14.3   929.6    0.00     299    58.9
  36   14:20   64.8    31    5.7   128     11.5   929.5    0.00     270    59.0
  36   14:30   64.9    30    4.5   148     16.4   929.5    0.00     223    59.2
  36   14:40   64.5    30    6.2   148     12.1   929.3    0.00     228    59.4
  36   14:50   64.2    30    6.4   134     12.6   929.3    0.00     169    59.5
  36   15:00   63.9    29    5.9   159     16.8   929.5    0.00     168    59.6
  36   15:10   64.0    27    7.4   165     15.6   929.5    0.00     167    59.7
  36   15:20   63.9    25    6.9   164     13.7   929.4    0.00     104    59.8
  36   15:30   64.1    26    5.2   164     14.2   929.3    0.00     167    59.8
  36   15:40   64.1    26    5.3   152     12.6   929.2    0.00     138    59.9
  36   15:50   63.8    26    4.8   137      9.3   929.2    0.00      85    59.9
  36   16:00   63.2    28    4.5   128     12.5   929.1    0.00      54    59.9
  36   16:10   62.9    31    3.7   124     11.8   929.1    0.00      60    59.8
  36   16:20   62.4    32    4.2   140     13.0   929.0    0.00      59    59.8
  36   16:30   62.3    32    2.1   127      6.8   928.9    0.00      47    59.8
  36   16:40   62.2    32    2.3   135      8.5   928.9    0.00      45    59.7
  36   16:50   61.9    33    2.1    94      7.2   928.9    0.00      33    59.7
  36   17:00   61.5    33    0.8    63      4.7   928.9    0.00      14    59.6
  36   17:10   61.1    33    1.2   200      4.5   928.9    0.00       4    59.6
  36   17:20   61.0    32    1.1   203      2.8   928.8    0.00       3    59.5
  36   17:30   61.0    30    3.0   182      7.5   928.8    0.00       0    59.4
  36   17:40   61.0    29    3.9   174      8.3   928.7    0.00       0    59.3
  36   17:50   61.0    30    6.2   182     17.0   928.7    0.00       0    59.2
  36   18:00   60.8    31    5.2   177     10.1   928.9    0.00       0    59.1
  36   18:10   60.4    33    4.7   195      8.3   928.9    0.00       0    59.0
  36   18:20   59.9    33    3.6   216      6.3   928.9    0.00       0    58.9
  36   18:30   59.7    34    4.9   183      9.3   928.9    0.00       0    58.8
  36   18:40   59.8    34    5.3   171      8.8   928.8    0.00       0    58.7
  36   18:50   59.8    34    4.8   195      9.7   928.8    0.00       0    58.7
  36   19:00   59.9    34    5.4   202     10.2   928.8    0.00       0    58.6
  36   19:10   60.2    34    6.4   189     11.8   928.8    0.00       0    58.5
  36   19:20   59.8    36    4.5   212      7.1   928.6    0.00       0    58.4
  36   19:30   59.5    36    4.7   201      9.3   928.6    0.00       0    58.3
  36   19:40   59.7    35    5.9   178     12.1   928.5    0.00       0    58.2
  36   19:50   59.7    34    4.9   187     13.5   928.3    0.00       0    58.2
  36   20:00   59.7    34    6.0   181     11.5   928.2    0.00       0    58.1
  36   20:10   59.9    34    6.8   188     12.3   928.2    0.00       0    58.0
  36   20:20   59.9    34    6.8   186     12.4   928.3    0.00       0    58.0
  36   20:30   59.7    34    6.1   189     11.9   928.2    0.00       0    57.9
  36   20:40   59.4    33    5.6   194     10.4   928.1    0.00       0    57.8
  36   20:50   58.8    34    4.1   218      7.7   928.1    0.00       0    57.8

Return to Boulder City, Nevada graphs page.


Western Regional Climate Center,wrcc@dri.edu